Palmitos, Brazil
Current Conditions -  °F | °C
As of 1:30 AM on Monday 22 Dec 2014 (Local Time) from SBCH Reporting Station
Drizzle Drizzle  
Wind Chill: 63°   Ceiling: 100
Heat Index: 63°   Visibility: 0.93mi
Dew Point: 63°   Wind: 7mph
Humidity: 100%   Direction: 180°S
Pressure: 29.8"   Gusts: NA
Location:  27.07°S, 53.16°W
Report Text: SBCH 220330Z 18006KT 1500 -DZ BCFG OVC001 17/17 Q1009
Loading
Personal Weather Stations






























Interactive Weather Map New forecast layout! Learn more

10-Day Weather Forecast

Advertisements
Track Severe Weather on mobile